Time;durP1;ratioP1;P1;durP2;ratioP2;P2;SDS_P1;SDS_P2;PMS_P1;PMS_P2;Temp;Humidity;BMP_temperature;BMP_pressure;BME280_temperature;BME280_humidity;BME280_pressure;Samples;Min_cycle;Max_cycle;Signal;HPM_P1;HPM_P2
2022/11/27 00:02:25;;;;;;;21.63;13.90;;;4.80;99.90;;;;;;5053999;28;20208;-65
2022/11/27 00:04:51;;;;;;;19.17;13.00;;;4.80;99.90;;;;;;5053871;28;20201;-64
2022/11/27 00:07:18;;;;;;;17.50;13.30;;;4.70;99.90;;;;;;5054580;28;20210;-63
2022/11/27 00:09:45;;;;;;;21.92;12.68;;;4.70;99.90;;;;;;5053695;28;20764;-64
2022/11/27 00:12:13;;;;;;;18.92;12.52;;;4.60;99.90;;;;;;5054483;28;20213;-64
2022/11/27 00:14:40;;;;;;;22.08;13.27;;;4.70;99.90;;;;;;5054115;28;20225;-64
2022/11/27 00:17:06;;;;;;;22.23;13.60;;;4.60;99.90;;;;;;5053527;28;20209;-64
2022/11/27 00:19:33;;;;;;;22.33;13.70;;;4.60;99.90;;;;;;5053254;28;20225;-65
2022/11/27 00:22:00;;;;;;;22.98;13.13;;;4.60;99.90;;;;;;5053744;28;20205;-62
2022/11/27 00:24:26;;;;;;;19.25;13.48;;;4.60;99.90;;;;;;5054581;28;20206;-63
2022/11/27 00:26:53;;;;;;;21.83;14.35;;;4.60;99.90;;;;;;5056365;28;20202;-63
2022/11/27 00:29:21;;;;;;;20.42;14.35;;;4.50;99.90;;;;;;5057626;28;20225;-64
2022/11/27 00:31:48;;;;;;;21.33;12.52;;;4.50;99.90;;;;;;5057620;28;20554;-64
2022/11/27 00:34:15;;;;;;;18.75;12.70;;;4.50;99.90;;;;;;5057645;28;20209;-64
2022/11/27 00:36:41;;;;;;;18.70;11.65;;;4.50;99.90;;;;;;5057586;28;20213;-64
2022/11/27 00:39:08;;;;;;;22.75;14.38;;;4.50;99.90;;;;;;5057345;28;20633;-63
2022/11/27 00:41:35;;;;;;;26.30;14.60;;;4.50;99.90;;;;;;5057554;28;20208;-63
2022/11/27 00:44:02;;;;;;;18.95;12.98;;;4.50;99.90;;;;;;5057308;28;20213;-64
2022/11/27 00:46:32;;;;;;;24.40;13.13;;;4.50;99.90;;;;;;5057468;28;20208;-64
2022/11/27 00:49:01;;;;;;;23.05;13.38;;;4.40;99.90;;;;;;5057435;28;20234;-63
2022/11/27 00:51:29;;;;;;;20.77;13.80;;;4.40;99.90;;;;;;5057355;28;20202;-64
2022/11/27 00:53:56;;;;;;;19.45;13.23;;;4.40;99.90;;;;;;5057374;28;20212;-63
2022/11/27 00:56:25;;;;;;;20.67;13.32;;;4.40;99.90;;;;;;5057148;28;20232;-63
2022/11/27 00:58:52;;;;;;;21.10;14.25;;;4.40;99.90;;;;;;5056901;28;20600;-63
2022/11/27 01:01:20;;;;;;;24.85;14.93;;;4.40;99.90;;;;;;5056929;28;20220;-64
2022/11/27 01:03:49;;;;;;;25.10;14.93;;;4.40;99.90;;;;;;5056858;28;20205;-64
2022/11/27 01:06:17;;;;;;;21.67;13.45;;;4.30;99.90;;;;;;5057205;28;20205;-64
2022/11/27 01:08:44;;;;;;;22.63;14.43;;;4.30;99.90;;;;;;5057026;28;20694;-65
2022/11/27 01:11:14;;;;;;;26.58;15.35;;;4.30;99.90;;;;;;5057332;28;20205;-64
2022/11/27 01:13:42;;;;;;;24.50;13.70;;;4.40;99.90;;;;;;5057490;28;20552;-64
2022/11/27 01:16:11;;;;;;;23.40;15.73;;;4.40;99.90;;;;;;5057206;28;20225;-64
2022/11/27 01:18:40;;;;;;;19.17;12.88;;;4.30;99.90;;;;;;5056990;28;20221;-63
2022/11/27 01:21:08;;;;;;;18.83;13.15;;;4.30;99.90;;;;;;5056801;28;20209;-63
2022/11/27 01:23:35;;;;;;;22.65;14.07;;;4.30;99.90;;;;;;5057173;28;20201;-63
2022/11/27 01:26:03;;;;;;;19.67;13.30;;;4.30;99.90;;;;;;5057080;28;20209;-63
2022/11/27 01:28:30;;;;;;;22.88;13.63;;;4.30;99.90;;;;;;5057000;28;20209;-64
2022/11/27 01:30:57;;;;;;;22.15;14.63;;;4.30;99.90;;;;;;5056765;28;20224;-64
2022/11/27 01:33:23;;;;;;;26.50;13.23;;;4.30;99.90;;;;;;5056568;28;20217;-64
2022/11/27 01:35:55;;;;;;;19.25;13.15;;;4.30;99.90;;;;;;5056918;28;20214;-64
2022/11/27 01:38:23;;;;;;;18.02;13.25;;;4.30;99.90;;;;;;5056626;28;20255;-64
2022/11/27 01:40:55;;;;;;;20.33;13.65;;;4.40;99.90;;;;;;5056692;28;20198;-64
2022/11/27 01:43:37;;;;;;;19.48;13.18;;;4.40;99.90;;;;;;5056969;28;20197;-64
2022/11/27 01:46:05;;;;;;;18.17;13.23;;;4.40;99.90;;;;;;5056905;28;20186;-65
2022/11/27 01:48:32;;;;;;;19.75;12.30;;;4.40;99.90;;;;;;5056549;28;20209;-63
2022/11/27 01:50:59;;;;;;;22.17;12.63;;;4.40;99.90;;;;;;5056745;28;20209;-63
2022/11/27 01:53:27;;;;;;;19.27;11.82;;;4.40;99.90;;;;;;5056455;28;20268;-65
2022/11/27 01:55:58;;;;;;;21.25;12.60;;;4.40;99.90;;;;;;5056214;28;20608;-63
2022/11/27 01:58:28;;;;;;;16.00;12.10;;;4.40;99.90;;;;;;5055932;28;20186;-65
2022/11/27 02:00:55;;;;;;;17.00;11.85;;;4.40;99.90;;;;;;5055973;28;20688;-64
2022/11/27 02:03:22;;;;;;;20.70;11.55;;;4.40;99.90;;;;;;5056110;28;20231;-63
2022/11/27 02:05:49;;;;;;;17.05;11.55;;;4.50;99.90;;;;;;5055854;28;20221;-64
2022/11/27 02:08:17;;;;;;;18.10;12.73;;;4.50;99.90;;;;;;5055563;28;20202;-66
2022/11/27 02:10:51;;;;;;;15.25;11.38;;;4.50;99.90;;;;;;5056068;28;20197;-63
2022/11/27 02:13:24;;;;;;;19.10;10.48;;;4.40;99.90;;;;;;5056381;28;20197;-63
2022/11/27 02:16:01;;;;;;;19.15;11.23;;;4.50;99.90;;;;;;5055968;28;20212;-63
2022/11/27 02:18:33;;;;;;;19.95;11.27;;;4.50;99.90;;;;;;5055469;28;20276;-63
2022/11/27 02:21:08;;;;;;;16.40;11.32;;;4.50;99.90;;;;;;5055584;28;20201;-63
2022/11/27 02:23:56;;;;;;;19.75;11.40;;;4.50;99.90;;;;;;5055480;28;20638;-64
2022/11/27 02:26:41;;;;;;;18.90;11.48;;;4.50;99.90;;;;;;5055511;28;20650;-64
2022/11/27 02:29:11;;;;;;;17.10;11.77;;;4.50;99.90;;;;;;5055105;28;20228;-64
2022/11/27 02:31:43;;;;;;;18.73;12.90;;;4.60;99.90;;;;;;5055046;28;20697;-65
2022/11/27 02:34:20;;;;;;;18.48;11.73;;;4.60;99.90;;;;;;5055393;28;20201;-64
2022/11/27 02:36:53;;;;;;;19.33;12.13;;;4.60;99.90;;;;;;5055033;28;20673;-64
2022/11/27 02:39:27;;;;;;;17.80;11.50;;;4.60;99.90;;;;;;5055074;28;20705;-64
2022/11/27 02:41:59;;;;;;;22.45;12.82;;;4.60;99.90;;;;;;5054814;28;20189;-64
2022/11/27 02:44:32;;;;;;;16.52;12.38;;;4.70;99.90;;;;;;5055574;28;20195;-63
2022/11/27 02:46:59;;;;;;;16.45;11.80;;;4.70;99.90;;;;;;5055701;28;20260;-64
2022/11/27 02:49:26;;;;;;;18.15;13.05;;;4.70;99.90;;;;;;5054059;28;20229;-63
2022/11/27 02:51:58;;;;;;;16.65;12.70;;;4.70;99.90;;;;;;5055081;28;20209;-65
2022/11/27 02:54:28;;;;;;;18.30;11.70;;;4.70;99.90;;;;;;5054847;28;20646;-64
2022/11/27 02:56:58;;;;;;;18.25;11.65;;;4.70;99.90;;;;;;5054651;28;20728;-65
2022/11/27 02:59:30;;;;;;;18.08;12.10;;;4.70;99.90;;;;;;5054903;28;20229;-64
2022/11/27 03:02:02;;;;;;;18.83;12.02;;;4.60;99.90;;;;;;5054733;28;20186;-65
2022/11/27 03:04:33;;;;;;;19.73;12.43;;;4.60;99.90;;;;;;5054660;28;20669;-66
2022/11/27 03:07:04;;;;;;;19.88;11.57;;;4.60;99.90;;;;;;5054996;28;20201;-65
2022/11/27 03:09:35;;;;;;;20.40;11.70;;;4.50;99.90;;;;;;5054451;28;20717;-63
2022/11/27 03:12:05;;;;;;;19.05;12.35;;;4.50;99.90;;;;;;5054664;28;20190;-65
2022/11/27 03:14:34;;;;;;;20.85;13.40;;;4.40;99.90;;;;;;5054801;28;20196;-65
2022/11/27 03:17:09;;;;;;;23.60;13.43;;;4.40;99.90;;;;;;5054411;28;20228;-63
2022/11/27 03:19:42;;;;;;;19.75;12.98;;;4.30;99.90;;;;;;5054198;28;20233;-63
2022/11/27 03:22:09;;;;;;;24.05;13.48;;;4.30;99.90;;;;;;5054081;28;20189;-63
2022/11/27 03:24:36;;;;;;;20.30;13.10;;;4.20;99.90;;;;;;5054582;28;20213;-64
2022/11/27 03:27:04;;;;;;;20.05;12.68;;;4.20;99.90;;;;;;5054988;28;20209;-65
2022/11/27 03:29:37;;;;;;;23.52;14.02;;;4.20;99.90;;;;;;5054292;28;20229;-64
2022/11/27 03:32:05;;;;;;;18.27;13.00;;;4.20;99.90;;;;;;5054492;28;20192;-63
2022/11/27 03:34:33;;;;;;;19.02;12.23;;;4.20;99.90;;;;;;5054314;28;20210;-64
2022/11/27 03:37:00;;;;;;;19.73;12.75;;;4.10;99.90;;;;;;5054311;28;20226;-63
2022/11/27 03:39:28;;;;;;;19.17;13.65;;;4.10;99.90;;;;;;5054563;28;20217;-64
2022/11/27 03:42:04;;;;;;;17.45;11.23;;;4.10;99.90;;;;;;5054704;28;20205;-64
2022/11/27 03:44:42;;;;;;;22.95;13.80;;;4.10;99.90;;;;;;5054537;28;20196;-64
2022/11/27 03:47:18;;;;;;;21.77;13.07;;;4.10;99.90;;;;;;5054299;28;20185;-63
2022/11/27 03:50:03;;;;;;;21.42;12.55;;;4.10;99.90;;;;;;5054071;28;20222;-63
2022/11/27 03:52:38;;;;;;;18.63;11.13;;;4.00;99.90;;;;;;5054514;28;20556;-63
2022/11/27 03:55:12;;;;;;;20.45;13.40;;;4.00;99.90;;;;;;5054388;28;20186;-63
2022/11/27 03:57:43;;;;;;;22.15;12.50;;;4.00;99.90;;;;;;5054180;28;20556;-63
2022/11/27 04:00:12;;;;;;;17.73;12.02;;;3.90;99.90;;;;;;5053731;28;20217;-63
2022/11/27 04:02:43;;;;;;;17.23;11.50;;;3.90;99.90;;;;;;5054339;28;20202;-64
2022/11/27 04:05:10;;;;;;;17.70;10.73;;;3.90;99.90;;;;;;5054226;28;20197;-63
2022/11/27 04:10:38;;;;;;;19.95;12.20;;;3.90;99.90;;;;;;5091713;27;20927;-65
2022/11/27 04:13:05;;;;;;;21.25;10.93;;;3.90;99.90;;;;;;5092081;28;20200;-65
2022/11/27 04:15:31;;;;;;;18.90;11.90;;;3.90;99.90;;;;;;5091876;28;20206;-64
2022/11/27 04:17:58;;;;;;;15.60;10.27;;;3.90;99.90;;;;;;5091671;28;20673;-64
2022/11/27 04:20:25;;;;;;;15.93;10.52;;;3.90;99.90;;;;;;5092173;28;20231;-63
2022/11/27 04:22:52;;;;;;;15.88;11.60;;;3.90;99.90;;;;;;5104955;22;20290;-59
2022/11/27 04:25:18;;;;;;;15.52;11.35;;;3.90;99.90;;;;;;5070847;28;20211;-59
2022/11/27 04:27:46;;;;;;;18.05;11.20;;;3.90;99.90;;;;;;5070962;28;20205;-59
2022/11/27 04:30:14;;;;;;;17.42;12.10;;;3.90;99.90;;;;;;5073574;28;20224;-58
2022/11/27 04:32:41;;;;;;;17.90;12.25;;;3.90;99.90;;;;;;5078216;28;20232;-59
2022/11/27 04:35:09;;;;;;;13.82;11.05;;;3.90;99.90;;;;;;5080837;28;20576;-58
2022/11/27 04:37:36;;;;;;;16.33;10.40;;;3.90;99.90;;;;;;5075424;28;20208;-59
2022/11/27 04:40:04;;;;;;;16.35;10.70;;;3.80;99.90;;;;;;5074176;28;20227;-59
2022/11/27 04:42:30;;;;;;;15.57;9.77;;;3.90;99.90;;;;;;5072448;28;20237;-59
2022/11/27 04:44:58;;;;;;;15.80;10.65;;;3.80;99.90;;;;;;5072661;28;20205;-59
2022/11/27 04:47:25;;;;;;;18.02;11.50;;;3.80;99.90;;;;;;5073737;28;20210;-58
2022/11/27 04:49:52;;;;;;;13.57;9.75;;;3.80;99.90;;;;;;5074441;28;20224;-58
2022/11/27 04:52:18;;;;;;;16.88;9.85;;;3.80;99.90;;;;;;5080760;28;20605;-59
2022/11/27 04:54:45;;;;;;;18.02;11.30;;;3.80;99.90;;;;;;5083477;28;20200;-59
2022/11/27 04:57:12;;;;;;;17.00;10.45;;;3.80;99.90;;;;;;5086009;28;20201;-59
2022/11/27 04:59:39;;;;;;;18.42;10.70;;;3.70;99.90;;;;;;5075850;28;20212;-59
2022/11/27 05:02:07;;;;;;;16.38;10.32;;;3.70;99.90;;;;;;5086963;28;20228;-58
2022/11/27 05:04:34;;;;;;;16.83;11.27;;;3.70;99.90;;;;;;5086990;28;20208;-59
2022/11/27 05:07:00;;;;;;;18.63;11.18;;;3.70;99.90;;;;;;5077149;28;20205;-59
2022/11/27 05:09:27;;;;;;;20.30;11.32;;;3.60;99.90;;;;;;5076000;28;20213;-59
2022/11/27 05:11:54;;;;;;;15.90;10.70;;;3.70;99.90;;;;;;5079279;28;20221;-58
2022/11/27 05:14:22;;;;;;;13.88;9.25;;;3.60;99.90;;;;;;5076018;28;20209;-59
2022/11/27 05:16:52;;;;;;;18.13;10.93;;;3.60;99.90;;;;;;5082217;28;20205;-58
2022/11/27 05:19:21;;;;;;;14.95;9.70;;;3.60;99.90;;;;;;5083338;28;20562;-59
2022/11/27 05:21:49;;;;;;;16.30;11.63;;;3.60;99.90;;;;;;5069509;28;20232;-59
2022/11/27 05:24:17;;;;;;;15.82;10.60;;;3.60;99.90;;;;;;5068458;28;20197;-58
2022/11/27 05:26:44;;;;;;;19.73;10.80;;;3.60;99.90;;;;;;5068424;28;20202;-59
2022/11/27 05:29:11;;;;;;;14.18;9.77;;;3.60;99.90;;;;;;5069949;28;20236;-59
2022/11/27 05:31:39;;;;;;;19.23;10.73;;;3.60;99.90;;;;;;5058621;28;20213;-59
2022/11/27 05:34:06;;;;;;;17.42;10.15;;;3.60;99.90;;;;;;5056245;28;20197;-58
2022/11/27 05:36:35;;;;;;;13.88;9.85;;;3.60;99.90;;;;;;5056499;28;20228;-59
2022/11/27 05:39:03;;;;;;;14.75;8.40;;;3.60;99.90;;;;;;5056056;28;20201;-59
2022/11/27 05:41:31;;;;;;;16.83;9.32;;;3.60;99.90;;;;;;5056152;28;20296;-58
2022/11/27 05:43:57;;;;;;;13.35;8.55;;;3.60;99.90;;;;;;5055384;28;20693;-59
2022/11/27 05:46:24;;;;;;;13.40;10.20;;;3.60;99.90;;;;;;5056262;28;20202;-59
2022/11/27 05:48:51;;;;;;;18.50;10.30;;;3.60;99.90;;;;;;5057690;28;20205;-59
2022/11/27 05:51:18;;;;;;;15.35;10.30;;;3.60;99.90;;;;;;5055689;28;20216;-59
2022/11/27 05:53:46;;;;;;;11.57;9.15;;;3.60;99.90;;;;;;5055373;28;20230;-58
2022/11/27 05:56:15;;;;;;;13.50;8.77;;;3.60;99.90;;;;;;5055820;28;20208;-59
2022/11/27 05:58:43;;;;;;;13.57;8.18;;;3.60;99.90;;;;;;5055497;28;20201;-59
2022/11/27 06:01:13;;;;;;;14.18;9.48;;;3.60;99.90;;;;;;5056309;28;20206;-58
2022/11/27 06:03:39;;;;;;;11.88;8.30;;;3.60;99.90;;;;;;5055730;28;20730;-59
2022/11/27 06:06:07;;;;;;;11.23;8.15;;;3.60;99.90;;;;;;5057907;28;20666;-59
2022/11/27 06:08:36;;;;;;;12.80;8.68;;;3.60;99.90;;;;;;5058022;28;20208;-59
2022/11/27 06:11:08;;;;;;;15.98;8.30;;;3.60;99.90;;;;;;5057116;28;20228;-59
2022/11/27 06:13:35;;;;;;;14.05;8.70;;;3.60;99.90;;;;;;5055058;28;20298;-59
2022/11/27 06:16:07;;;;;;;15.30;9.57;;;3.60;99.90;;;;;;5055449;28;20206;-58
2022/11/27 06:18:34;;;;;;;15.23;8.63;;;3.60;99.90;;;;;;5055286;28;20518;-59
2022/11/27 06:21:00;;;;;;;14.73;8.65;;;3.60;99.90;;;;;;5055031;28;20198;-58
2022/11/27 06:23:27;;;;;;;15.45;8.63;;;3.60;99.90;;;;;;5054945;28;20248;-59
2022/11/27 06:25:54;;;;;;;18.73;8.23;;;3.60;99.90;;;;;;5054909;28;20689;-59
2022/11/27 06:28:22;;;;;;;13.70;8.13;;;3.70;99.90;;;;;;5055139;28;20201;-58
2022/11/27 06:30:49;;;;;;;12.48;8.63;;;3.70;99.90;;;;;;5054949;28;20221;-59
2022/11/27 06:33:15;;;;;;;13.52;9.10;;;3.70;99.90;;;;;;5053530;28;20728;-59
2022/11/27 06:35:42;;;;;;;11.90;7.95;;;3.70;99.90;;;;;;5054531;28;20217;-59
2022/11/27 06:38:09;;;;;;;10.90;7.72;;;3.70;99.90;;;;;;5054779;28;20204;-59
2022/11/27 06:40:35;;;;;;;15.38;9.40;;;3.80;99.90;;;;;;5054887;28;20565;-59
2022/11/27 06:43:02;;;;;;;9.77;8.73;;;3.80;99.90;;;;;;5054525;28;20224;-59
2022/11/27 06:45:30;;;;;;;13.77;8.80;;;3.80;99.90;;;;;;5054832;28;20202;-60
2022/11/27 06:47:58;;;;;;;16.95;8.93;;;3.80;99.90;;;;;;5054800;28;20228;-59
2022/11/27 06:50:25;;;;;;;12.63;7.50;;;3.80;99.90;;;;;;5054601;28;20558;-60
2022/11/27 06:52:51;;;;;;;13.40;8.30;;;3.80;99.90;;;;;;5054548;28;20252;-59
2022/11/27 06:55:18;;;;;;;11.50;8.55;;;3.80;99.90;;;;;;5056500;28;20263;-58
2022/11/27 06:57:45;;;;;;;15.82;8.85;;;3.80;99.90;;;;;;5056347;28;20201;-58
2022/11/27 07:00:13;;;;;;;13.90;8.25;;;3.80;99.90;;;;;;5054651;28;20585;-59
2022/11/27 07:02:41;;;;;;;13.73;9.15;;;3.80;99.90;;;;;;5053864;28;20732;-59
2022/11/27 07:05:08;;;;;;;14.68;8.90;;;3.80;99.90;;;;;;5054076;28;20201;-59
2022/11/27 07:07:35;;;;;;;16.38;10.30;;;3.90;99.90;;;;;;5054073;28;20202;-58
2022/11/27 07:10:02;;;;;;;13.07;8.95;;;3.90;99.90;;;;;;5053537;28;20584;-59
2022/11/27 07:12:28;;;;;;;13.88;9.15;;;3.90;99.90;;;;;;5053820;28;20223;-59
2022/11/27 07:14:55;;;;;;;14.27;9.25;;;3.90;99.90;;;;;;5053790;28;20205;-58
2022/11/27 07:17:22;;;;;;;13.20;9.55;;;3.90;99.90;;;;;;5053623;28;20217;-59
2022/11/27 07:19:50;;;;;;;15.15;9.38;;;3.90;99.90;;;;;;5053899;28;20206;-59
2022/11/27 07:22:16;;;;;;;16.42;9.27;;;4.00;99.90;;;;;;5053641;28;20752;-58
2022/11/27 07:24:43;;;;;;;18.42;10.07;;;4.00;99.90;;;;;;5053869;28;20206;-58
2022/11/27 07:27:10;;;;;;;12.30;8.75;;;4.00;99.90;;;;;;5053700;28;20206;-59
2022/11/27 07:29:37;;;;;;;14.77;9.20;;;4.00;99.90;;;;;;5053663;28;20221;-58
2022/11/27 07:32:03;;;;;;;19.15;9.45;;;4.10;99.90;;;;;;5053809;28;20225;-58
2022/11/27 07:34:30;;;;;;;11.45;8.55;;;4.10;99.90;;;;;;5053650;28;20205;-59
2022/11/27 07:36:58;;;;;;;15.40;9.20;;;4.20;99.90;;;;;;5053920;28;20206;-59
2022/11/27 07:39:25;;;;;;;13.10;9.00;;;4.20;99.90;;;;;;5053823;28;20202;-58
2022/11/27 07:41:51;;;;;;;12.93;9.07;;;4.30;99.90;;;;;;5054148;28;20222;-59
2022/11/27 07:44:18;;;;;;;12.30;9.18;;;4.40;99.90;;;;;;5053446;28;20677;-59
2022/11/27 07:46:45;;;;;;;17.20;9.82;;;4.40;99.90;;;;;;5053916;28;20210;-59
2022/11/27 07:49:12;;;;;;;10.63;9.25;;;4.50;99.90;;;;;;5053700;28;20209;-57
2022/11/27 07:51:38;;;;;;;15.43;8.77;;;4.60;99.90;;;;;;5054582;28;20206;-59
2022/11/27 07:54:06;;;;;;;12.40;8.32;;;4.70;99.90;;;;;;5054703;28;20209;-57
2022/11/27 07:56:33;;;;;;;15.15;8.77;;;4.90;99.90;;;;;;5055812;28;20213;-59
2022/11/27 07:59:00;;;;;;;9.57;7.38;;;4.90;99.90;;;;;;5054835;28;20205;-58
2022/11/27 08:01:27;;;;;;;12.95;7.80;;;5.00;99.90;;;;;;5054427;28;20197;-59
2022/11/27 08:03:53;;;;;;;10.38;7.03;;;5.00;99.90;;;;;;5053900;28;20229;-58
2022/11/27 08:06:22;;;;;;;9.68;7.35;;;5.00;99.90;;;;;;5054519;28;20201;-58
2022/11/27 08:08:49;;;;;;;12.18;8.32;;;5.00;99.90;;;;;;5054406;28;20216;-59
2022/11/27 08:11:23;;;;;;;12.70;8.20;;;5.00;99.90;;;;;;5054467;28;20228;-58
2022/11/27 08:13:50;;;;;;;10.13;7.20;;;5.10;99.90;;;;;;5054344;28;20539;-59
2022/11/27 08:16:17;;;;;;;11.93;8.50;;;5.10;99.90;;;;;;5054339;28;20197;-59
2022/11/27 08:18:43;;;;;;;9.13;7.47;;;5.20;99.90;;;;;;5053849;28;20642;-59
2022/11/27 08:21:10;;;;;;;9.95;7.50;;;5.30;99.90;;;;;;5054549;28;20569;-58
2022/11/27 08:23:37;;;;;;;11.57;7.43;;;5.40;99.90;;;;;;5053557;28;20230;-59
2022/11/27 08:26:08;;;;;;;13.45;7.93;;;5.60;99.90;;;;;;5053424;28;20213;-59
2022/11/27 08:28:37;;;;;;;9.85;6.85;;;5.70;99.90;;;;;;5054069;28;20208;-60
2022/11/27 08:31:05;;;;;;;12.82;7.57;;;5.90;99.90;;;;;;5053234;28;20232;-60
2022/11/27 08:33:33;;;;;;;9.15;6.35;;;6.00;99.90;;;;;;5053663;28;20744;-59
2022/11/27 08:36:00;;;;;;;10.75;6.70;;;6.10;99.90;;;;;;5053161;28;20202;-60
2022/11/27 08:38:27;;;;;;;11.05;7.35;;;6.30;99.90;;;;;;5053220;28;20221;-60
2022/11/27 08:40:56;;;;;;;7.45;6.35;;;6.40;99.90;;;;;;5058977;28;20202;-60
2022/11/27 08:43:23;;;;;;;9.43;8.07;;;6.40;99.90;;;;;;5061160;28;20256;-59
2022/11/27 08:45:52;;;;;;;10.48;6.95;;;6.50;99.90;;;;;;5056400;28;20206;-60
2022/11/27 08:48:19;;;;;;;8.43;6.63;;;6.50;99.90;;;;;;5054075;28;20237;-60
2022/11/27 08:50:48;;;;;;;10.05;7.82;;;6.50;99.90;;;;;;5053403;28;20228;-59
2022/11/27 08:53:15;;;;;;;9.45;6.38;;;6.60;99.90;;;;;;5053233;28;20222;-59
2022/11/27 08:55:42;;;;;;;10.50;6.30;;;6.60;99.90;;;;;;5054147;28;20210;-59
2022/11/27 08:58:09;;;;;;;13.15;6.80;;;6.60;99.90;;;;;;5057763;28;20206;-61
2022/11/27 09:00:37;;;;;;;10.23;7.18;;;6.60;99.90;;;;;;5057363;28;20549;-58
2022/11/27 09:03:05;;;;;;;9.10;6.55;;;6.60;99.90;;;;;;5057519;28;20225;-60
2022/11/27 09:05:32;;;;;;;10.48;6.60;;;6.60;99.90;;;;;;5057615;28;20210;-59
2022/11/27 09:08:01;;;;;;;13.32;6.80;;;6.60;99.90;;;;;;5057392;28;20575;-59
2022/11/27 09:10:28;;;;;;;11.23;6.82;;;6.60;99.90;;;;;;5057698;28;20222;-60
2022/11/27 09:12:55;;;;;;;9.55;6.55;;;6.60;99.90;;;;;;5057255;28;20232;-59
2022/11/27 09:15:22;;;;;;;7.15;6.28;;;6.60;99.90;;;;;;5057130;28;20293;-59
2022/11/27 09:17:48;;;;;;;9.57;6.28;;;6.70;99.90;;;;;;5060268;28;20765;-60
2022/11/27 09:20:17;;;;;;;11.23;7.15;;;6.80;99.90;;;;;;5048288;28;20194;-60
2022/11/27 09:22:43;;;;;;;8.95;6.28;;;6.90;99.90;;;;;;5037781;28;20736;-59
2022/11/27 09:25:10;;;;;;;8.77;6.80;;;7.00;99.90;;;;;;5054799;28;20193;-60
2022/11/27 09:27:37;;;;;;;10.07;6.78;;;7.00;99.90;;;;;;5059044;28;20202;-59
2022/11/27 09:30:07;;;;;;;9.25;6.95;;;7.10;99.90;;;;;;5062302;28;20230;-59
2022/11/27 09:32:34;;;;;;;9.18;7.80;;;7.10;99.90;;;;;;5062988;28;20243;-58
2022/11/27 09:35:00;;;;;;;9.20;6.20;;;7.10;99.90;;;;;;5063085;28;20209;-58
2022/11/27 09:37:29;;;;;;;12.82;7.22;;;7.10;99.90;;;;;;5062344;28;20209;-58
2022/11/27 09:39:56;;;;;;;10.35;7.32;;;7.10;99.90;;;;;;5061782;28;20721;-58
2022/11/27 09:42:35;;;;;;;8.15;6.72;;;7.10;99.90;;;;;;5061924;28;20267;-58
2022/11/27 09:45:05;;;;;;;8.25;6.25;;;7.00;99.90;;;;;;5066109;28;20194;-58
2022/11/27 09:47:40;;;;;;;10.63;6.63;;;7.00;99.90;;;;;;5068858;28;20198;-58
2022/11/27 09:50:13;;;;;;;9.77;6.22;;;6.90;99.90;;;;;;5069933;28;20235;-60
2022/11/27 09:52:43;;;;;;;10.48;7.05;;;7.00;99.90;;;;;;5069623;28;20226;-59
2022/11/27 09:55:15;;;;;;;10.88;7.70;;;7.00;99.90;;;;;;5066639;28;20543;-60
2022/11/27 09:57:43;;;;;;;10.15;6.65;;;7.20;99.90;;;;;;5060201;28;20190;-58
2022/11/27 10:00:15;;;;;;;10.40;7.18;;;7.30;99.90;;;;;;5058021;28;20206;-60
2022/11/27 10:02:42;;;;;;;7.85;6.72;;;7.40;99.90;;;;;;5057355;28;20228;-59
2022/11/27 10:05:16;;;;;;;10.60;7.35;;;7.60;99.90;;;;;;5056819;28;20205;-60
2022/11/27 10:08:01;;;;;;;8.05;6.40;;;7.60;99.90;;;;;;5056335;28;20622;-59
2022/11/27 10:10:35;;;;;;;10.63;6.53;;;7.60;99.90;;;;;;5059642;28;20214;-60
2022/11/27 10:13:14;;;;;;;13.35;7.57;;;7.70;99.90;;;;;;5053801;28;20224;-58
2022/11/27 10:15:48;;;;;;;9.50;7.70;;;7.70;99.90;;;;;;5057199;28;20660;-58
2022/11/27 10:18:32;;;;;;;11.43;7.70;;;7.80;99.90;;;;;;5075693;28;20223;-59
2022/11/27 10:21:08;;;;;;;9.05;6.60;;;7.80;99.90;;;;;;5061545;28;20190;-60
2022/11/27 10:23:49;;;;;;;10.55;7.05;;;7.80;99.90;;;;;;5079691;22;20286;-56
2022/11/27 10:26:18;;;;;;;10.13;7.20;;;7.80;99.90;;;;;;5050193;28;20198;-61
2022/11/27 10:28:54;;;;;;;13.48;7.30;;;7.80;99.90;;;;;;5050803;28;20220;-60
2022/11/27 10:31:32;;;;;;;9.95;7.35;;;7.80;99.90;;;;;;5053744;28;20205;-59
2022/11/27 10:34:02;;;;;;;8.80;5.65;;;7.90;99.90;;;;;;5054268;28;20224;-60
2022/11/27 10:36:37;;;;;;;10.57;6.90;;;7.90;99.90;;;;;;5055443;28;20198;-60
2022/11/27 10:39:16;;;;;;;8.40;6.68;;;7.90;99.90;;;;;;5054233;28;20204;-60
2022/11/27 10:41:49;;;;;;;8.82;7.18;;;8.00;99.90;;;;;;5054164;28;20182;-60
2022/11/27 10:44:27;;;;;;;9.48;6.03;;;8.00;99.90;;;;;;5054461;28;20673;-61
2022/11/27 10:47:01;;;;;;;9.75;6.10;;;8.10;99.90;;;;;;5055228;28;20190;-58
2022/11/27 10:49:27;;;;;;;12.30;6.22;;;8.10;99.90;;;;;;5055454;28;20186;-58
2022/11/27 10:51:54;;;;;;;10.10;6.18;;;8.20;99.90;;;;;;5055685;28;20225;-60
2022/11/27 10:54:28;;;;;;;7.63;6.32;;;8.20;99.90;;;;;;5053753;28;20221;-58
2022/11/27 10:57:35;;;;;;;8.48;6.00;;;8.30;99.90;;;;;;5054030;28;20208;-60
2022/11/27 11:00:09;;;;;;;9.15;6.00;;;8.30;99.90;;;;;;5054074;28;20196;-60
2022/11/27 11:02:37;;;;;;;8.25;6.03;;;8.40;99.90;;;;;;5054414;28;20193;-59
2022/11/27 11:05:21;;;;;;;14.13;7.30;;;8.40;99.90;;;;;;5054319;28;20275;-59
2022/11/27 11:08:00;;;;;;;7.28;5.60;;;8.40;99.90;;;;;;5054234;28;20556;-59
2022/11/27 11:10:32;;;;;;;9.85;5.82;;;8.50;99.90;;;;;;5054289;28;20227;-60
2022/11/27 11:13:21;;;;;;;7.00;5.07;;;8.50;99.90;;;;;;5053512;28;20205;-60
2022/11/27 11:15:53;;;;;;;8.88;6.55;;;8.60;99.90;;;;;;5047041;28;20667;-59
2022/11/27 11:18:22;;;;;;;8.82;6.90;;;8.60;99.90;;;;;;5053686;28;20206;-59
2022/11/27 11:20:52;;;;;;;11.02;6.88;;;8.60;99.90;;;;;;5054092;28;20669;-60
2022/11/27 11:23:23;;;;;;;8.32;5.15;;;8.70;99.90;;;;;;5053698;28;20703;-60
2022/11/27 11:25:55;;;;;;;7.60;6.25;;;8.70;99.90;;;;;;5053883;28;20574;-60
2022/11/27 11:28:23;;;;;;;9.82;5.75;;;8.80;99.90;;;;;;5054336;28;20202;-58
2022/11/27 11:30:57;;;;;;;20.63;7.20;;;8.80;99.90;;;;;;5055069;28;20236;-59
2022/11/27 11:33:25;;;;;;;7.57;6.57;;;8.80;99.90;;;;;;5053791;28;20212;-60
2022/11/27 11:35:54;;;;;;;7.75;6.25;;;8.80;99.90;;;;;;5052825;28;20201;-60
2022/11/27 11:38:28;;;;;;;7.55;5.47;;;8.80;99.90;;;;;;5053666;28;20198;-59
2022/11/27 11:41:01;;;;;;;10.55;6.03;;;8.80;99.90;;;;;;5054003;28;20186;-62
2022/11/27 11:43:30;;;;;;;6.82;5.30;;;8.80;99.90;;;;;;5053580;28;20228;-60
2022/11/27 11:46:17;;;;;;;6.90;5.40;;;8.80;99.90;;;;;;5054209;28;20662;-57
2022/11/27 11:48:54;;;;;;;6.85;5.47;;;8.80;99.90;;;;;;5053616;28;20198;-57
2022/11/27 11:51:49;;;;;;;7.90;5.40;;;8.80;99.90;;;;;;5056516;28;20206;-55
2022/11/27 11:54:31;;;;;;;9.07;7.25;;;8.80;99.90;;;;;;5055818;28;20226;-58
2022/11/27 11:57:02;;;;;;;8.82;6.65;;;8.80;99.90;;;;;;5054681;28;20272;-58
2022/11/27 11:59:37;;;;;;;9.00;7.65;;;8.70;99.90;;;;;;5054326;28;20568;-58
2022/11/27 12:02:34;;;;;;;10.73;8.25;;;8.70;99.90;;;;;;5053322;28;20177;-59
2022/11/27 12:05:24;;;;;;;6.15;5.00;;;8.70;99.90;;;;;;5054129;28;20583;-59
2022/11/27 12:08:02;;;;;;;8.48;5.80;;;8.70;99.90;;;;;;5054757;28;20190;-57
2022/11/27 12:10:45;;;;;;;9.80;6.05;;;8.70;99.90;;;;;;5054104;28;20186;-58
2022/11/27 12:13:23;;;;;;;10.70;6.72;;;8.70;99.90;;;;;;5054885;28;20181;-57
2022/11/27 12:15:58;;;;;;;8.75;5.60;;;8.70;99.90;;;;;;5052814;28;20197;-58
2022/11/27 12:18:34;;;;;;;11.23;5.90;;;8.80;99.90;;;;;;5055196;28;20637;-57
2022/11/27 12:21:12;;;;;;;9.90;5.65;;;8.80;99.90;;;;;;5054073;28;20185;-56
2022/11/27 12:23:57;;;;;;;8.40;5.72;;;8.90;99.90;;;;;;5054337;28;20229;-58
2022/11/27 12:26:32;;;;;;;9.70;5.03;;;8.90;99.90;;;;;;5054435;28;20194;-58
2022/11/27 12:29:25;;;;;;;8.18;6.05;;;8.90;99.90;;;;;;5053917;28;20202;-58
2022/11/27 12:32:26;;;;;;;9.02;5.40;;;9.00;99.90;;;;;;5058192;28;20598;-57
2022/11/27 12:35:07;;;;;;;8.65;4.72;;;9.00;99.90;;;;;;5057908;28;20221;-57
2022/11/27 12:37:46;;;;;;;8.10;5.70;;;9.00;99.90;;;;;;5038268;28;20225;-58
2022/11/27 12:40:27;;;;;;;8.98;5.30;;;9.00;99.90;;;;;;5054316;28;20575;-58
2022/11/27 12:43:03;;;;;;;7.45;4.50;;;9.00;99.90;;;;;;5057268;28;20190;-58
2022/11/27 12:45:36;;;;;;;5.53;5.00;;;9.00;99.90;;;;;;5058381;28;20272;-58
2022/11/27 12:48:12;;;;;;;8.93;4.95;;;9.00;99.90;;;;;;5058964;28;20190;-58
2022/11/27 12:50:42;;;;;;;8.23;5.55;;;9.00;99.90;;;;;;5058557;28;20273;-58
2022/11/27 12:53:16;;;;;;;10.48;6.30;;;9.00;99.90;;;;;;5058953;28;20197;-58
2022/11/27 12:55:50;;;;;;;7.85;5.25;;;9.00;99.90;;;;;;5057405;28;20202;-58
2022/11/27 12:58:22;;;;;;;9.18;5.20;;;9.00;99.90;;;;;;5059020;28;20190;-58
2022/11/27 13:01:01;;;;;;;7.00;5.45;;;9.00;99.90;;;;;;5057809;28;20707;-58
2022/11/27 13:03:34;;;;;;;6.47;4.63;;;9.00;99.90;;;;;;5057001;28;20222;-57
2022/11/27 13:06:08;;;;;;;6.63;4.93;;;9.00;99.90;;;;;;5057180;28;20638;-59